Terminal Aerodrome Forecast
Issued by NWS

Home | Current Version | Previous Version | Text Only | Print | Product List | Glossary On
Versions: 1 2 3 4 5 6 7 8 9 10 11 12 13 14
000
FTUS43 KGRB 170520
TAFRHI
TAF
KRHI 170520Z 1706/1806 15005KT P6SM BKN200
     FM171000 17003KT 4SM BR BKN007
     FM171500 19007KT P6SM SCT250
     FM180300 23008KT 4SM BR SCT015 SCT250=

USA.gov is the U.S. government's official web portal to all federal, state and local government web resources and services.